Terminal Aerodrome Forecast
Issued by NWS

Home | Current Version | Previous Version | Text Only | Print | Product List | Glossary On
Versions: 1 2 3 4 5 6 7 8 9 10
133
FTUS45 KVEF 241139
TAFDAG
TAF
KDAG 241139Z 2412/2512 25022G32KT P6SM BKN250
     FM241900 26035G50KT 6SM BLDU FEW150 BKN200
     FM250500 26033G43KT 6SM BLDU FEW150 BKN200=

USA.gov is the U.S. government's official web portal to all federal, state and local government web resources and services.